sensor_id;sensor_type;location;lat;lon;timestamp;pressure;altitude;pressure_sealevel;temperature;humidity
7182;BME280;3632;42.724;23.298;2022-11-20T00:00:39;94432.59;;;15.10;79.02
7182;BME280;3632;42.724;23.298;2022-11-20T00:03:06;94681.75;;;16.72;79.25
7182;BME280;3632;42.724;23.298;2022-11-20T00:05:34;94694.84;;;16.63;79.08
7182;BME280;3632;42.724;23.298;2022-11-20T00:08:02;94613.06;;;15.66;77.97
7182;BME280;3632;42.724;23.298;2022-11-20T00:10:32;94631.66;;;16.98;75.77
7182;BME280;3632;42.724;23.298;2022-11-20T00:13:02;94655.16;;;17.32;71.62
7182;BME280;3632;42.724;23.298;2022-11-20T00:15:30;94328.16;;;15.56;72.02
7182;BME280;3632;42.724;23.298;2022-11-20T00:17:57;94638.47;;;17.57;70.33
7182;BME280;3632;42.724;23.298;2022-11-20T00:20:25;94262.06;;;15.13;68.67
7182;BME280;3632;42.724;23.298;2022-11-20T00:22:52;94416.25;;;16.69;69.41
7182;BME280;3632;42.724;23.298;2022-11-20T00:25:23;94252.94;;;15.47;69.21
7182;BME280;3632;42.724;23.298;2022-11-20T00:27:50;94669.53;;;17.93;68.71
7182;BME280;3632;42.724;23.298;2022-11-20T00:30:21;94632.16;;;18.04;67.04
7182;BME280;3632;42.724;23.298;2022-11-20T00:32:48;94390.56;;;16.17;67.98
7182;BME280;3632;42.724;23.298;2022-11-20T00:35:16;94426.53;;;16.54;67.49
7182;BME280;3632;42.724;23.298;2022-11-20T00:37:44;94316.81;;;16.03;63.54
7182;BME280;3632;42.724;23.298;2022-11-20T00:40:12;94047.06;;;14.71;62.81
7182;BME280;3632;42.724;23.298;2022-11-20T00:42:41;94611.03;;;18.51;62.70
7182;BME280;3632;42.724;23.298;2022-11-20T00:45:09;94257.66;;;16.46;61.91
7182;BME280;3632;42.724;23.298;2022-11-20T00:47:37;94376.16;;;16.74;61.73
7182;BME280;3632;42.724;23.298;2022-11-20T00:50:05;94348.72;;;16.81;62.60
7182;BME280;3632;42.724;23.298;2022-11-20T00:52:32;94616.56;;;18.48;63.77
7182;BME280;3632;42.724;23.298;2022-11-20T00:54:59;94549.19;;;18.15;62.59
7182;BME280;3632;42.724;23.298;2022-11-20T00:57:26;94636.94;;;18.79;63.28
7182;BME280;3632;42.724;23.298;2022-11-20T00:59:55;94629.50;;;18.69;63.42
7182;BME280;3632;42.724;23.298;2022-11-20T01:02:22;94548.28;;;18.29;63.27
7182;BME280;3632;42.724;23.298;2022-11-20T01:04:50;94521.03;;;17.77;63.49
7182;BME280;3632;42.724;23.298;2022-11-20T01:07:17;94095.16;;;15.35;63.04
7182;BME280;3632;42.724;23.298;2022-11-20T01:09:45;94626.31;;;18.88;62.99
7182;BME280;3632;42.724;23.298;2022-11-20T01:12:12;94266.19;;;16.62;63.04
7182;BME280;3632;42.724;23.298;2022-11-20T01:14:39;94236.59;;;16.72;62.20
7182;BME280;3632;42.724;23.298;2022-11-20T01:17:08;94590.47;;;18.79;61.90
7182;BME280;3632;42.724;23.298;2022-11-20T01:19:35;94508.06;;;18.35;62.38
7182;BME280;3632;42.724;23.298;2022-11-20T01:22:02;94618.03;;;18.99;62.06
7182;BME280;3632;42.724;23.298;2022-11-20T01:24:29;94620.19;;;18.96;62.68
7182;BME280;3632;42.724;23.298;2022-11-20T01:26:56;94604.94;;;19.01;61.45
7182;BME280;3632;42.724;23.298;2022-11-20T01:29:24;94582.63;;;18.93;59.81
7182;BME280;3632;42.724;23.298;2022-11-20T01:31:52;94588.16;;;19.18;59.72
7182;BME280;3632;42.724;23.298;2022-11-20T01:34:21;94330.22;;;17.50;59.98
7182;BME280;3632;42.724;23.298;2022-11-20T01:36:50;94599.28;;;19.18;59.57
7182;BME280;3632;42.724;23.298;2022-11-20T01:39:19;94446.84;;;17.73;59.21
7182;BME280;3632;42.724;23.298;2022-11-20T01:41:48;94380.97;;;17.70;59.19
7182;BME280;3632;42.724;23.298;2022-11-20T01:44:51;94586.66;;;19.30;58.41
7182;BME280;3632;42.724;23.298;2022-11-20T01:47:23;94610.25;;;19.27;58.61
7182;BME280;3632;42.724;23.298;2022-11-20T01:49:56;94594.31;;;19.45;58.29
7182;BME280;3632;42.724;23.298;2022-11-20T01:52:28;94350.44;;;17.67;58.77
7182;BME280;3632;42.724;23.298;2022-11-20T01:55:01;94593.03;;;19.34;58.76
7182;BME280;3632;42.724;23.298;2022-11-20T01:57:34;94100.09;;;15.81;58.09
7182;BME280;3632;42.724;23.298;2022-11-20T02:00:05;94103.13;;;16.41;58.28
7182;BME280;3632;42.724;23.298;2022-11-20T02:02:33;94588.69;;;19.41;58.28
7182;BME280;3632;42.724;23.298;2022-11-20T02:05:11;94434.06;;;17.50;59.09
7182;BME280;3632;42.724;23.298;2022-11-20T02:07:41;94586.59;;;19.24;59.18
7182;BME280;3632;42.724;23.298;2022-11-20T02:10:09;94596.13;;;19.23;58.53
7182;BME280;3632;42.724;23.298;2022-11-20T02:12:36;94593.53;;;19.23;58.72
7182;BME280;3632;42.724;23.298;2022-11-20T02:15:20;94600.09;;;19.19;59.21
7182;BME280;3632;42.724;23.298;2022-11-20T02:17:48;94569.84;;;19.13;58.78
7182;BME280;3632;42.724;23.298;2022-11-20T02:20:17;94235.06;;;16.42;59.77
7182;BME280;3632;42.724;23.298;2022-11-20T02:22:50;94104.75;;;16.07;59.76
7182;BME280;3632;42.724;23.298;2022-11-20T02:25:23;94575.59;;;19.08;59.02
7182;BME280;3632;42.724;23.298;2022-11-20T02:27:52;94575.75;;;19.07;58.93
7182;BME280;3632;42.724;23.298;2022-11-20T02:30:21;94349.09;;;17.35;59.46
7182;BME280;3632;42.724;23.298;2022-11-20T02:32:48;94547.13;;;19.02;59.87
7182;BME280;3632;42.724;23.298;2022-11-20T02:35:39;94587.94;;;19.13;59.87
7182;BME280;3632;42.724;23.298;2022-11-20T02:38:07;94345.31;;;17.31;60.10
7182;BME280;3632;42.724;23.298;2022-11-20T02:40:36;94408.44;;;18.06;60.21
7182;BME280;3632;42.724;23.298;2022-11-20T02:43:04;94564.69;;;18.85;60.46
7182;BME280;3632;42.724;23.298;2022-11-20T02:45:31;94030.81;;;15.51;60.54
7182;BME280;3632;42.724;23.298;2022-11-20T02:47:59;94343.56;;;16.96;61.17
7182;BME280;3632;42.724;23.298;2022-11-20T02:50:27;94423.56;;;17.88;60.79
7182;BME280;3632;42.724;23.298;2022-11-20T02:52:55;94417.47;;;17.74;60.77
7182;BME280;3632;42.724;23.298;2022-11-20T02:55:23;94630.50;;;19.17;61.45
7182;BME280;3632;42.724;23.298;2022-11-20T02:57:52;94051.22;;;15.45;61.64
7182;BME280;3632;42.724;23.298;2022-11-20T03:00:19;94301.38;;;16.46;62.16
7182;BME280;3632;42.724;23.298;2022-11-20T03:02:46;94271.91;;;16.78;62.61
7182;BME280;3632;42.724;23.298;2022-11-20T03:05:14;94116.66;;;15.49;63.03
7182;BME280;3632;42.724;23.298;2022-11-20T03:07:43;94652.28;;;18.87;64.08
7182;BME280;3632;42.724;23.298;2022-11-20T03:10:10;94280.25;;;16.51;64.68
7182;BME280;3632;42.724;23.298;2022-11-20T03:12:37;94657.38;;;18.80;65.34
7182;BME280;3632;42.724;23.298;2022-11-20T03:15:07;94408.13;;;17.16;64.83
7182;BME280;3632;42.724;23.298;2022-11-20T03:17:34;94381.44;;;17.02;65.21
7182;BME280;3632;42.724;23.298;2022-11-20T03:20:01;94646.75;;;18.90;65.09
7182;BME280;3632;42.724;23.298;2022-11-20T03:22:29;94387.28;;;17.11;64.79
7182;BME280;3632;42.724;23.298;2022-11-20T03:24:56;94668.50;;;18.81;65.23
7182;BME280;3632;42.724;23.298;2022-11-20T03:27:24;94287.56;;;16.18;65.04
7182;BME280;3632;42.724;23.298;2022-11-20T03:29:51;94266.69;;;16.42;64.98
7182;BME280;3632;42.724;23.298;2022-11-20T03:32:20;94069.06;;;15.17;64.67
7182;BME280;3632;42.724;23.298;2022-11-20T03:34:47;94449.28;;;17.45;65.14
7182;BME280;3632;42.724;23.298;2022-11-20T03:37:14;94699.81;;;18.92;65.37
7182;BME280;3632;42.724;23.298;2022-11-20T03:39:42;94203.31;;;15.84;65.25
7182;BME280;3632;42.724;23.298;2022-11-20T03:42:10;94686.13;;;18.92;64.97
7182;BME280;3632;42.724;23.298;2022-11-20T03:44:51;94673.78;;;18.94;64.81
7182;BME280;3632;42.724;23.298;2022-11-20T03:47:20;94534.31;;;17.60;64.75
7182;BME280;3632;42.724;23.298;2022-11-20T03:49:48;94637.56;;;18.09;64.46
7182;BME280;3632;42.724;23.298;2022-11-20T03:52:15;94682.91;;;18.90;64.70
7182;BME280;3632;42.724;23.298;2022-11-20T03:54:42;94667.84;;;18.93;64.53
7182;BME280;3632;42.724;23.298;2022-11-20T03:57:09;94195.00;;;15.45;63.92
7182;BME280;3632;42.724;23.298;2022-11-20T03:59:37;94639.59;;;18.49;64.98
7182;BME280;3632;42.724;23.298;2022-11-20T04:02:04;94659.19;;;18.80;64.87
7182;BME280;3632;42.724;23.298;2022-11-20T04:04:33;94690.72;;;18.75;65.08
7182;BME280;3632;42.724;23.298;2022-11-20T04:07:00;94462.03;;;17.03;64.34
7182;BME280;3632;42.724;23.298;2022-11-20T04:09:27;94296.63;;;15.99;64.03
7182;BME280;3632;42.724;23.298;2022-11-20T04:11:54;94379.28;;;16.84;64.45
7182;BME280;3632;42.724;23.298;2022-11-20T04:14:22;94674.00;;;18.71;64.88
7182;BME280;3632;42.724;23.298;2022-11-20T04:16:49;94670.75;;;18.62;64.66
7182;BME280;3632;42.724;23.298;2022-11-20T04:19:16;94249.47;;;16.07;63.66
7182;BME280;3632;42.724;23.298;2022-11-20T04:21:45;94649.88;;;18.85;62.99
7182;BME280;3632;42.724;23.298;2022-11-20T04:24:12;94413.19;;;17.24;62.73
7182;BME280;3632;42.724;23.298;2022-11-20T04:26:39;94307.59;;;16.23;62.85
7182;BME280;3632;42.724;23.298;2022-11-20T04:29:10;94667.84;;;18.72;62.80
7182;BME280;3632;42.724;23.298;2022-11-20T04:31:38;94658.69;;;18.69;62.56
7182;BME280;3632;42.724;23.298;2022-11-20T04:34:06;94662.44;;;18.67;62.92
7182;BME280;3632;42.724;23.298;2022-11-20T04:36:34;94469.19;;;17.36;63.38
7182;BME280;3632;42.724;23.298;2022-11-20T04:39:04;94582.72;;;17.35;63.69
7182;BME280;3632;42.724;23.298;2022-11-20T04:41:33;94728.06;;;18.43;63.54
7182;BME280;3632;42.724;23.298;2022-11-20T04:44:02;94590.78;;;17.76;63.56
7182;BME280;3632;42.724;23.298;2022-11-20T04:46:31;94366.50;;;16.62;63.24
7182;BME280;3632;42.724;23.298;2022-11-20T04:48:58;94214.47;;;15.77;63.07
7182;BME280;3632;42.724;23.298;2022-11-20T04:51:28;94528.53;;;17.43;62.90
7182;BME280;3632;42.724;23.298;2022-11-20T04:54:06;94124.94;;;14.92;62.86
7182;BME280;3632;42.724;23.298;2022-11-20T04:56:35;94426.47;;;17.42;62.99
7182;BME280;3632;42.724;23.298;2022-11-20T04:59:02;94432.03;;;17.46;62.25
7182;BME280;3632;42.724;23.298;2022-11-20T05:01:30;94264.06;;;16.21;62.71
7182;BME280;3632;42.724;23.298;2022-11-20T05:03:58;94404.06;;;17.07;63.32
7182;BME280;3632;42.724;23.298;2022-11-20T05:06:26;94118.38;;;15.27;63.40
7182;BME280;3632;42.724;23.298;2022-11-20T05:08:53;94625.13;;;18.69;62.92
7182;BME280;3632;42.724;23.298;2022-11-20T05:11:22;94455.41;;;17.44;63.26
7182;BME280;3632;42.724;23.298;2022-11-20T05:13:50;94631.66;;;18.65;63.24
7182;BME280;3632;42.724;23.298;2022-11-20T05:16:19;94622.38;;;18.71;63.02
7182;BME280;3632;42.724;23.298;2022-11-20T05:18:46;94333.59;;;16.72;63.98
7182;BME280;3632;42.724;23.298;2022-11-20T05:21:14;94399.19;;;17.12;63.33
7182;BME280;3632;42.724;23.298;2022-11-20T05:23:42;94325.59;;;16.52;63.83
7182;BME280;3632;42.724;23.298;2022-11-20T05:26:13;94628.22;;;18.58;63.76
7182;BME280;3632;42.724;23.298;2022-11-20T05:28:43;94615.38;;;18.50;63.60
7182;BME280;3632;42.724;23.298;2022-11-20T05:31:12;94238.81;;;15.95;63.56
7182;BME280;3632;42.724;23.298;2022-11-20T05:33:40;94582.22;;;18.26;63.62
7182;BME280;3632;42.724;23.298;2022-11-20T05:36:08;94047.72;;;14.87;63.33
7182;BME280;3632;42.724;23.298;2022-11-20T05:38:36;94360.88;;;16.87;63.45
7182;BME280;3632;42.724;23.298;2022-11-20T05:41:06;94610.28;;;18.36;64.05
7182;BME280;3632;42.724;23.298;2022-11-20T05:43:34;94602.94;;;17.97;63.89
7182;BME280;3632;42.724;23.298;2022-11-20T05:46:03;94410.28;;;16.98;61.97
7182;BME280;3632;42.724;23.298;2022-11-20T05:48:32;94545.81;;;17.49;62.74
7182;BME280;3632;42.724;23.298;2022-11-20T05:50:59;94658.19;;;18.81;63.08
7182;BME280;3632;42.724;23.298;2022-11-20T05:53:27;94652.44;;;18.79;64.34
7182;BME280;3632;42.724;23.298;2022-11-20T05:55:58;94313.47;;;16.46;64.55
7182;BME280;3632;42.724;23.298;2022-11-20T05:58:26;94651.38;;;18.73;64.83
7182;BME280;3632;42.724;23.298;2022-11-20T06:00:54;94637.34;;;18.82;64.88
7182;BME280;3632;42.724;23.298;2022-11-20T06:03:22;94382.97;;;16.82;65.58
7182;BME280;3632;42.724;23.298;2022-11-20T06:05:50;94357.84;;;16.99;65.00
7182;BME280;3632;42.724;23.298;2022-11-20T06:08:17;94659.41;;;18.85;65.00
7182;BME280;3632;42.724;23.298;2022-11-20T06:10:44;94662.75;;;18.79;65.20
7182;BME280;3632;42.724;23.298;2022-11-20T06:13:11;94565.03;;;18.12;65.34
7182;BME280;3632;42.724;23.298;2022-11-20T06:15:38;94266.94;;;15.82;65.65
7182;BME280;3632;42.724;23.298;2022-11-20T06:18:06;94639.41;;;18.51;66.15
7182;BME280;3632;42.724;23.298;2022-11-20T06:20:35;94152.66;;;14.97;66.47
7182;BME280;3632;42.724;23.298;2022-11-20T06:23:03;94158.06;;;15.02;66.75
7182;BME280;3632;42.724;23.298;2022-11-20T06:25:33;93980.41;;;13.96;66.75
7182;BME280;3632;42.724;23.298;2022-11-20T06:28:00;94656.63;;;18.80;65.70
7182;BME280;3632;42.724;23.298;2022-11-20T06:30:27;94245.53;;;16.26;65.21
7182;BME280;3632;42.724;23.298;2022-11-20T06:32:54;94617.38;;;18.69;64.87
7182;BME280;3632;42.724;23.298;2022-11-20T06:35:22;94659.28;;;18.93;65.28
7182;BME280;3632;42.724;23.298;2022-11-20T06:37:51;94196.50;;;15.77;64.92
7182;BME280;3632;42.724;23.298;2022-11-20T06:40:18;94720.28;;;18.73;65.33
7182;BME280;3632;42.724;23.298;2022-11-20T06:42:45;94595.50;;;18.44;65.40
7182;BME280;3632;42.724;23.298;2022-11-20T06:45:12;94625.94;;;18.34;65.59
7182;BME280;3632;42.724;23.298;2022-11-20T06:47:39;94676.63;;;18.99;64.61
7182;BME280;3632;42.724;23.298;2022-11-20T06:50:07;94645.59;;;18.71;65.32
7182;BME280;3632;42.724;23.298;2022-11-20T06:52:34;94682.47;;;18.86;65.93
7182;BME280;3632;42.724;23.298;2022-11-20T06:55:03;94558.75;;;18.21;65.67
7182;BME280;3632;42.724;23.298;2022-11-20T06:57:31;94672.19;;;18.93;65.78
7182;BME280;3632;42.724;23.298;2022-11-20T06:59:58;94695.94;;;19.03;65.35
7182;BME280;3632;42.724;23.298;2022-11-20T07:02:26;94405.03;;;17.20;64.63
7182;BME280;3632;42.724;23.298;2022-11-20T07:04:52;94656.69;;;18.93;64.60
7182;BME280;3632;42.724;23.298;2022-11-20T07:07:20;94685.47;;;18.90;65.42
7182;BME280;3632;42.724;23.298;2022-11-20T07:09:47;94652.03;;;18.60;66.12
7182;BME280;3632;42.724;23.298;2022-11-20T07:12:16;94679.47;;;18.83;65.10
7182;BME280;3632;42.724;23.298;2022-11-20T07:14:43;94530.25;;;17.57;64.91
7182;BME280;3632;42.724;23.298;2022-11-20T07:17:11;94677.44;;;18.42;64.75
7182;BME280;3632;42.724;23.298;2022-11-20T07:19:38;94632.25;;;17.96;65.26
7182;BME280;3632;42.724;23.298;2022-11-20T07:22:10;94099.56;;;14.97;66.25
7182;BME280;3632;42.724;23.298;2022-11-20T07:24:38;94326.06;;;16.41;66.66
7182;BME280;3632;42.724;23.298;2022-11-20T07:27:06;94644.88;;;18.41;66.65
7182;BME280;3632;42.724;23.298;2022-11-20T07:29:37;94550.88;;;17.57;66.67
7182;BME280;3632;42.724;23.298;2022-11-20T07:32:05;94387.13;;;16.39;66.98
7182;BME280;3632;42.724;23.298;2022-11-20T07:34:34;94657.69;;;18.49;67.58
7182;BME280;3632;42.724;23.298;2022-11-20T07:37:01;94711.72;;;18.72;67.59
7182;BME280;3632;42.724;23.298;2022-11-20T07:39:28;94714.13;;;18.74;67.35
7182;BME280;3632;42.724;23.298;2022-11-20T07:41:56;94121.13;;;14.88;67.36
7182;BME280;3632;42.724;23.298;2022-11-20T07:44:25;94470.41;;;17.05;68.29
7182;BME280;3632;42.724;23.298;2022-11-20T07:46:58;94708.44;;;18.63;69.02
7182;BME280;3632;42.724;23.298;2022-11-20T07:49:25;94705.06;;;18.63;68.92
7182;BME280;3632;42.724;23.298;2022-11-20T07:51:52;94703.28;;;18.63;68.57
7182;BME280;3632;42.724;23.298;2022-11-20T07:54:20;94671.91;;;18.45;68.45
7182;BME280;3632;42.724;23.298;2022-11-20T07:56:47;94704.47;;;18.61;68.55
7182;BME280;3632;42.724;23.298;2022-11-20T07:59:14;94410.06;;;16.63;68.47
7182;BME280;3632;42.724;23.298;2022-11-20T08:01:42;94601.25;;;17.89;68.90
7182;BME280;3632;42.724;23.298;2022-11-20T08:04:11;94692.38;;;18.47;69.37
7182;BME280;3632;42.724;23.298;2022-11-20T08:06:37;94704.66;;;18.45;69.29
7182;BME280;3632;42.724;23.298;2022-11-20T08:09:04;94393.53;;;16.28;68.64
7182;BME280;3632;42.724;23.298;2022-11-20T08:11:32;94595.03;;;17.84;68.47
7182;BME280;3632;42.724;23.298;2022-11-20T08:14:16;94583.94;;;17.83;67.66
7182;BME280;3632;42.724;23.298;2022-11-20T08:16:44;94416.81;;;16.79;68.37
7182;BME280;3632;42.724;23.298;2022-11-20T08:19:14;94343.38;;;15.80;69.05
7182;BME280;3632;42.724;23.298;2022-11-20T08:21:41;94714.16;;;18.59;69.52
7182;BME280;3632;42.724;23.298;2022-11-20T08:24:08;94700.78;;;18.70;68.89
7182;BME280;3632;42.724;23.298;2022-11-20T08:26:36;94144.53;;;15.08;68.84
7182;BME280;3632;42.724;23.298;2022-11-20T08:29:04;94702.06;;;18.59;69.24
7182;BME280;3632;42.724;23.298;2022-11-20T08:31:31;94238.66;;;15.45;69.07
7182;BME280;3632;42.724;23.298;2022-11-20T08:33:58;94718.06;;;18.69;69.21
7182;BME280;3632;42.724;23.298;2022-11-20T08:36:27;94730.34;;;18.67;68.31
7182;BME280;3632;42.724;23.298;2022-11-20T08:38:55;94709.09;;;18.65;67.90
7182;BME280;3632;42.724;23.298;2022-11-20T08:41:22;94356.69;;;16.13;65.99
7182;BME280;3632;42.724;23.298;2022-11-20T08:43:54;94723.75;;;19.01;65.14
7182;BME280;3632;42.724;23.298;2022-11-20T08:46:21;94733.16;;;19.08;65.88
7182;BME280;3632;42.724;23.298;2022-11-20T08:48:49;94709.81;;;18.59;66.68
7182;BME280;3632;42.724;23.298;2022-11-20T08:51:16;94672.25;;;18.57;67.59
7182;BME280;3632;42.724;23.298;2022-11-20T08:53:45;94593.13;;;17.27;70.22
7182;BME280;3632;42.724;23.298;2022-11-20T08:56:12;94720.59;;;18.48;72.06
7182;BME280;3632;42.724;23.298;2022-11-20T08:58:39;94679.66;;;17.80;75.21
7182;BME280;3632;42.724;23.298;2022-11-20T09:01:06;94623.53;;;17.61;77.50
7182;BME280;3632;42.724;23.298;2022-11-20T09:03:33;94753.25;;;18.41;78.46
7182;BME280;3632;42.724;23.298;2022-11-20T09:06:01;94764.66;;;18.03;80.19
7182;BME280;3632;42.724;23.298;2022-11-20T09:08:29;94719.34;;;17.56;81.27
7182;BME280;3632;42.724;23.298;2022-11-20T09:10:59;94714.53;;;17.53;81.81
7182;BME280;3632;42.724;23.298;2022-11-20T09:13:27;94782.97;;;17.93;82.88
7182;BME280;3632;42.724;23.298;2022-11-20T09:15:54;94735.94;;;17.54;83.50
7182;BME280;3632;42.724;23.298;2022-11-20T09:18:22;94778.25;;;17.97;84.07
7182;BME280;3632;42.724;23.298;2022-11-20T09:20:51;94783.06;;;18.00;83.33
7182;BME280;3632;42.724;23.298;2022-11-20T09:23:20;94783.81;;;17.71;85.58
7182;BME280;3632;42.724;23.298;2022-11-20T09:25:47;94185.69;;;13.30;86.49
7182;BME280;3632;42.724;23.298;2022-11-20T09:28:26;94550.97;;;15.46;89.96
7182;BME280;3632;42.724;23.298;2022-11-20T09:30:54;94710.16;;;17.02;89.47
7182;BME280;3632;42.724;23.298;2022-11-20T09:33:21;94555.75;;;15.65;91.04
7182;BME280;3632;42.724;23.298;2022-11-20T09:35:48;94763.78;;;17.21;91.39
7182;BME280;3632;42.724;23.298;2022-11-20T09:38:15;94738.09;;;17.50;88.52
7182;BME280;3632;42.724;23.298;2022-11-20T09:40:46;94660.13;;;17.19;86.99
7182;BME280;3632;42.724;23.298;2022-11-20T09:43:20;94345.31;;;15.10;87.33
7182;BME280;3632;42.724;23.298;2022-11-20T09:46:04;94731.50;;;18.14;87.72
7182;BME280;3632;42.724;23.298;2022-11-20T09:48:42;94549.66;;;16.95;84.62
7182;BME280;3632;42.724;23.298;2022-11-20T09:51:19;94711.94;;;18.92;82.79
7182;BME280;3632;42.724;23.298;2022-11-20T09:54:00;94822.13;;;19.06;82.17
7182;BME280;3632;42.724;23.298;2022-11-20T09:56:33;94713.63;;;19.06;84.82
7182;BME280;3632;42.724;23.298;2022-11-20T09:59:04;94236.59;;;16.72;85.85
7182;BME280;3632;42.724;23.298;2022-11-20T10:01:36;94368.03;;;18.13;80.14
7182;BME280;3632;42.724;23.298;2022-11-20T10:04:11;94128.19;;;17.31;78.24
7182;BME280;3632;42.724;23.298;2022-11-20T10:06:44;94305.16;;;18.14;76.06
7182;BME280;3632;42.724;23.298;2022-11-20T10:09:21;94697.41;;;21.43;75.55
7182;BME280;3632;42.724;23.298;2022-11-20T10:11:59;94700.00;;;21.36;73.50
7182;BME280;3632;42.724;23.298;2022-11-20T10:14:38;94458.81;;;19.20;71.36
7182;BME280;3632;42.724;23.298;2022-11-20T10:17:15;94234.97;;;17.56;73.39
7182;BME280;3632;42.724;23.298;2022-11-20T10:20:05;94674.59;;;20.12;75.29
7182;BME280;3632;42.724;23.298;2022-11-20T10:22:50;94672.94;;;19.08;76.64
7182;BME280;3632;42.724;23.298;2022-11-20T10:25:24;94688.59;;;19.28;78.59
7182;BME280;3632;42.724;23.298;2022-11-20T10:28:22;94680.69;;;19.08;79.63
7182;BME280;3632;42.724;23.298;2022-11-20T10:30:56;94705.16;;;18.91;80.44
7182;BME280;3632;42.724;23.298;2022-11-20T10:33:27;94587.00;;;18.29;79.05
7182;BME280;3632;42.724;23.298;2022-11-20T10:36:05;94693.53;;;18.80;78.79
7182;BME280;3632;42.724;23.298;2022-11-20T10:38:38;94301.75;;;16.29;78.17
7182;BME280;3632;42.724;23.298;2022-11-20T10:41:07;94417.66;;;16.42;78.54
7182;BME280;3632;42.724;23.298;2022-11-20T10:44:01;94654.31;;;17.84;78.86
7182;BME280;3632;42.724;23.298;2022-11-20T10:46:37;94716.34;;;18.77;78.38
7182;BME280;3632;42.724;23.298;2022-11-20T10:49:13;94708.41;;;18.57;79.37
7182;BME280;3632;42.724;23.298;2022-11-20T10:51:55;94688.13;;;18.39;80.08
7182;BME280;3632;42.724;23.298;2022-11-20T10:54:31;94212.97;;;14.70;81.28
7182;BME280;3632;42.724;23.298;2022-11-20T10:57:07;94686.13;;;18.20;82.32
7182;BME280;3632;42.724;23.298;2022-11-20T10:59:49;94661.63;;;17.65;83.52
7182;BME280;3632;42.724;23.298;2022-11-20T11:02:24;94486.25;;;16.04;84.05
7182;BME280;3632;42.724;23.298;2022-11-20T11:04:59;94118.25;;;12.90;82.22
7182;BME280;3632;42.724;23.298;2022-11-20T11:07:36;94491.56;;;14.31;83.04
7182;BME280;3632;42.724;23.298;2022-11-20T11:10:17;94225.28;;;12.61;93.82
7182;BME280;3632;42.724;23.298;2022-11-20T11:12:47;94766.06;;;15.36;92.69
7182;BME280;3632;42.724;23.298;2022-11-20T11:15:25;94434.47;;;11.88;92.97
7182;BME280;3632;42.724;23.298;2022-11-20T11:17:53;94090.53;;;10.27;95.17
7182;BME280;3632;42.724;23.298;2022-11-20T11:20:23;94376.19;;;12.09;95.47
7182;BME280;3632;42.724;23.298;2022-11-20T11:22:52;94790.97;;;14.19;94.89
7182;BME280;3632;42.724;23.298;2022-11-20T11:25:24;94428.75;;;11.94;95.30
7182;BME280;3632;42.724;23.298;2022-11-20T11:27:53;94722.56;;;14.19;96.56
7182;BME280;3632;42.724;23.298;2022-11-20T11:30:23;94700.13;;;14.13;95.51
7182;BME280;3632;42.724;23.298;2022-11-20T11:33:03;94458.31;;;12.48;95.60
7182;BME280;3632;42.724;23.298;2022-11-20T11:35:43;94289.09;;;10.82;97.32
7182;BME280;3632;42.724;23.298;2022-11-20T11:38:14;94716.47;;;14.12;98.58
7182;BME280;3632;42.724;23.298;2022-11-20T11:40:46;94667.06;;;13.86;98.97
7182;BME280;3632;42.724;23.298;2022-11-20T11:43:19;94681.19;;;13.98;98.29
7182;BME280;3632;42.724;23.298;2022-11-20T11:46:23;94145.66;;;10.19;97.53
7182;BME280;3632;42.724;23.298;2022-11-20T11:48:56;94604.03;;;13.59;94.33
7182;BME280;3632;42.724;23.298;2022-11-20T11:51:30;94724.53;;;14.34;93.94
7182;BME280;3632;42.724;23.298;2022-11-20T11:53:59;94717.25;;;14.47;91.44
7182;BME280;3632;42.724;23.298;2022-11-20T11:56:29;94579.25;;;13.00;89.55
7182;BME280;3632;42.724;23.298;2022-11-20T11:59:00;94745.97;;;14.83;88.95
7182;BME280;3632;42.724;23.298;2022-11-20T12:01:33;94729.50;;;15.01;87.98
7182;BME280;3632;42.724;23.298;2022-11-20T12:04:14;94470.78;;;12.77;89.48
7182;BME280;3632;42.724;23.298;2022-11-20T12:06:47;94790.09;;;15.02;89.21
7182;BME280;3632;42.724;23.298;2022-11-20T12:09:16;94673.81;;;14.78;85.22
7182;BME280;3632;42.724;23.298;2022-11-20T12:11:49;94574.69;;;13.46;85.16
7182;BME280;3632;42.724;23.298;2022-11-20T12:14:24;94543.41;;;13.60;84.94
7182;BME280;3632;42.724;23.298;2022-11-20T12:16:56;94736.72;;;15.22;84.33
7182;BME280;3632;42.724;23.298;2022-11-20T12:19:23;94502.03;;;14.13;83.05
7182;BME280;3632;42.724;23.298;2022-11-20T12:22:00;94677.81;;;15.21;82.35
7182;BME280;3632;42.724;23.298;2022-11-20T12:24:46;94475.75;;;14.11;82.50
7182;BME280;3632;42.724;23.298;2022-11-20T12:27:33;94709.09;;;15.32;81.61
7182;BME280;3632;42.724;23.298;2022-11-20T12:30:08;94720.91;;;15.82;81.71
7182;BME280;3632;42.724;23.298;2022-11-20T12:32:52;94665.75;;;15.37;81.82
7182;BME280;3632;42.724;23.298;2022-11-20T12:35:38;94702.75;;;15.83;80.33
7182;BME280;3632;42.724;23.298;2022-11-20T12:38:31;94765.75;;;15.63;81.56
7182;BME280;3632;42.724;23.298;2022-11-20T12:41:09;94611.63;;;14.59;83.89
7182;BME280;3632;42.724;23.298;2022-11-20T12:44:09;94687.91;;;15.54;87.21
7182;BME280;3632;42.724;23.298;2022-11-20T12:47:12;94687.06;;;15.62;89.57
7182;BME280;3632;42.724;23.298;2022-11-20T12:49:50;94772.63;;;15.63;91.21
7182;BME280;3632;42.724;23.298;2022-11-20T12:52:32;94670.41;;;15.42;93.07
7182;BME280;3632;42.724;23.298;2022-11-20T12:55:23;94617.38;;;14.94;94.98
7182;BME280;3632;42.724;23.298;2022-11-20T12:57:57;94174.72;;;11.98;95.55
7182;BME280;3632;42.724;23.298;2022-11-20T13:00:25;94281.59;;;12.77;96.63
7182;BME280;3632;42.724;23.298;2022-11-20T13:06:11;94365.06;;;13.02;98.11
7182;BME280;3632;42.724;23.298;2022-11-20T13:08:41;94421.78;;;13.48;98.30
7182;BME280;3632;42.724;23.298;2022-11-20T13:11:15;94579.09;;;14.44;98.44
7182;BME280;3632;42.724;23.298;2022-11-20T13:13:56;94433.25;;;13.19;98.44
7182;BME280;3632;42.724;23.298;2022-11-20T13:16:28;94306.56;;;12.07;99.16
7182;BME280;3632;42.724;23.298;2022-11-20T13:19:01;94700.72;;;14.49;100.00
7182;BME280;3632;42.724;23.298;2022-11-20T13:21:37;94712.13;;;14.47;100.00
7182;BME280;3632;42.724;23.298;2022-11-20T13:24:05;94313.22;;;11.92;100.00
7182;BME280;3632;42.724;23.298;2022-11-20T13:26:34;94714.38;;;14.66;100.00
7182;BME280;3632;42.724;23.298;2022-11-20T13:29:09;94640.09;;;14.24;100.00
7182;BME280;3632;42.724;23.298;2022-11-20T13:31:42;94464.38;;;13.65;95.15